Ran — HKCG1 — position and weather

sailwx.info

Track history (hours):
 
Tides and Currents Weather Stations Pressure Air Temp Water Temp Dewpoint Dewpoint Depression Visibility Wind Speed Wind Dir Waves Ship Positions

Ran

Last reported at 2017-Dec-10 16:51 UTC. Time now 2018-Feb-21 03:51 UTC.
Position N 09°31' W 079°49'.
Warning: this ship's position is months out of date.

Length 32 m; draft 4 m.

Type: Tug. MMSI: 730078000.

Date/timePositionNaut miles runAvg speedWind from/ knotsBaromVisibWave heightAir tempDewpointWater temp
2017-Dec-10 16:51N 09°31' W 079°49'410.5
2017-Dec-10 16:30N 09°29' W 079°51'5 9.4
2017-Dec-10 16:00N 09°25' W 079°54'2 4.8
2017-Dec-10 15:30N 09°22' W 079°54'0 0.0
2017-Dec-10 15:00N 09°22' W 079°54'0 0.0
2017-Dec-10 14:30N 09°22' W 079°54'0 0.0
2017-Dec-10 14:00N 09°22' W 079°54'0 0.0
2017-Dec-10 13:30N 09°22' W 079°54'0 0.0
2017-Dec-10 13:00N 09°22' W 079°54'0 0.0
2017-Dec-10 12:30N 09°22' W 079°54'0 0.0
2017-Dec-10 12:00N 09°22' W 079°54'0 0.0
2017-Dec-10 11:30N 09°22' W 079°54'0 0.0
2017-Dec-10 11:00N 09°22' W 079°54'0 0.0
2017-Dec-10 10:30N 09°22' W 079°54'0 0.0
2017-Dec-10 10:00N 09°22' W 079°54'0 0.0
2017-Dec-10 09:30N 09°22' W 079°54'0 0.0
2017-Dec-10 09:00N 09°22' W 079°54'0 0.0
2017-Dec-10 08:30N 09°22' W 079°54'0 0.0
2017-Dec-10 08:00N 09°22' W 079°54'0 0.0
2017-Dec-10 07:30N 09°22' W 079°54'0 0.1
2017-Dec-10 07:00N 09°22' W 079°54'0 0.0
2017-Dec-10 06:30N 09°22' W 079°54'0 0.0
2017-Dec-10 06:00N 09°22' W 079°54'0 0.0
2017-Dec-10 05:30N 09°22' W 079°54'0 0.0
2017-Dec-10 05:00N 09°22' W 079°54'0 0.0
2017-Dec-10 04:30N 09°22' W 079°54'0 0.0
2017-Dec-10 04:00N 09°22' W 079°54'0 0.0
2017-Dec-10 03:30N 09°22' W 079°54'0 0.0
2017-Dec-10 03:00N 09°22' W 079°54'0 0.0
2017-Dec-10 02:30N 09°22' W 079°54'0 0.0
2017-Dec-10 02:00N 09°22' W 079°54'0 0.0
2017-Dec-10 01:30N 09°22' W 079°54'0 0.0
2017-Dec-10 01:00N 09°22' W 079°54'0 0.0
2017-Dec-10 00:30N 09°22' W 079°54'0 0.0
2017-Dec-10 00:00N 09°22' W 079°54'0 0.0
2017-Dec-09 23:30N 09°22' W 079°54'0 0.0
2017-Dec-09 23:00N 09°22' W 079°54'0 0.0
2017-Dec-09 22:30N 09°22' W 079°54'0 0.0
2017-Dec-09 22:00N 09°22' W 079°54'0 0.0
2017-Dec-09 21:30N 09°22' W 079°54'0 0.0
2017-Dec-09 21:00N 09°22' W 079°54'0 0.0
2017-Dec-09 20:30N 09°22' W 079°54'0 0.0
2017-Dec-09 20:00N 09°22' W 079°54'0 0.0
2017-Dec-09 19:30N 09°22' W 079°54'0 0.1
2017-Dec-09 19:00N 09°22' W 079°54'0 0.4
2017-Dec-09 18:31N 09°22' W 079°54'2 3.3
2017-Dec-09 18:00N 09°24' W 079°54'1 1.5
2017-Dec-09 17:30N 09°25' W 079°54'1 2.7
2017-Dec-09 17:00N 09°26' W 079°53'0 0.6
2017-Dec-09 16:30N 09°26' W 079°53'1 2.8
2017-Dec-09 16:00N 09°26' W 079°55'3 5.1
2017-Dec-09 15:30N 09°27' W 079°57'2 4.8
2017-Dec-09 15:00N 09°28' W 079°59'2 5.0
2017-Dec-09 14:30N 09°28' W 080°02'4 5.3
2017-Dec-09 13:42N 09°30' W 080°06'10 5.5
2017-Dec-09 11:49N 09°31' W 080°16'3 5.6
2017-Dec-09 11:14N 09°31' W 080°20'7 5.8
2017-Dec-09 10:02N 09°32' W 080°27'1 6.2
2017-Dec-09 09:52N 09°32' W 080°28'3 6.5
2017-Dec-09 09:21N 09°33' W 080°31'  
Track history (hours):
 
Tides and Currents Weather Stations Pressure Air Temp Water Temp Dewpoint Dewpoint Depression Visibility Wind Speed Wind Dir Waves Ship Positions

Ran

Last reported at 2017-Dec-10 16:51 UTC. Time now 2018-Feb-21 03:51 UTC.
Position N 09°31' W 079°49'.
Warning: this ship's position is months out of date.

Length 32 m; draft 4 m.

Type: Tug. MMSI: 730078000.

Date/timePositionNaut miles runAvg speedWind from/ knotsBaromVisibWave heightAir tempDewpointWater temp
2017-Dec-10 16:51N 09°31' W 079°49'410.5
2017-Dec-10 16:30N 09°29' W 079°51'5 9.4
2017-Dec-10 16:00N 09°25' W 079°54'2 4.8
2017-Dec-10 15:30N 09°22' W 079°54'0 0.0
2017-Dec-10 15:00N 09°22' W 079°54'0 0.0
2017-Dec-10 14:30N 09°22' W 079°54'0 0.0
2017-Dec-10 14:00N 09°22' W 079°54'0 0.0
2017-Dec-10 13:30N 09°22' W 079°54'0 0.0
2017-Dec-10 13:00N 09°22' W 079°54'0 0.0
2017-Dec-10 12:30N 09°22' W 079°54'0 0.0
2017-Dec-10 12:00N 09°22' W 079°54'0 0.0
2017-Dec-10 11:30N 09°22' W 079°54'0 0.0
2017-Dec-10 11:00N 09°22' W 079°54'0 0.0
2017-Dec-10 10:30N 09°22' W 079°54'0 0.0
2017-Dec-10 10:00N 09°22' W 079°54'0 0.0
2017-Dec-10 09:30N 09°22' W 079°54'0 0.0
2017-Dec-10 09:00N 09°22' W 079°54'0 0.0
2017-Dec-10 08:30N 09°22' W 079°54'0 0.0
2017-Dec-10 08:00N 09°22' W 079°54'0 0.0
2017-Dec-10 07:30N 09°22' W 079°54'0 0.1
2017-Dec-10 07:00N 09°22' W 079°54'0 0.0
2017-Dec-10 06:30N 09°22' W 079°54'0 0.0
2017-Dec-10 06:00N 09°22' W 079°54'0 0.0
2017-Dec-10 05:30N 09°22' W 079°54'0 0.0
2017-Dec-10 05:00N 09°22' W 079°54'0 0.0
2017-Dec-10 04:30N 09°22' W 079°54'0 0.0
2017-Dec-10 04:00N 09°22' W 079°54'0 0.0
2017-Dec-10 03:30N 09°22' W 079°54'0 0.0
2017-Dec-10 03:00N 09°22' W 079°54'0 0.0
2017-Dec-10 02:30N 09°22' W 079°54'0 0.0
2017-Dec-10 02:00N 09°22' W 079°54'0 0.0
2017-Dec-10 01:30N 09°22' W 079°54'0 0.0
2017-Dec-10 01:00N 09°22' W 079°54'0 0.0
2017-Dec-10 00:30N 09°22' W 079°54'0 0.0
2017-Dec-10 00:00N 09°22' W 079°54'0 0.0
2017-Dec-09 23:30N 09°22' W 079°54'0 0.0
2017-Dec-09 23:00N 09°22' W 079°54'0 0.0
2017-Dec-09 22:30N 09°22' W 079°54'0 0.0
2017-Dec-09 22:00N 09°22' W 079°54'0 0.0
2017-Dec-09 21:30N 09°22' W 079°54'0 0.0
2017-Dec-09 21:00N 09°22' W 079°54'0 0.0
2017-Dec-09 20:30N 09°22' W 079°54'0 0.0
2017-Dec-09 20:00N 09°22' W 079°54'0 0.0
2017-Dec-09 19:30N 09°22' W 079°54'0 0.1
2017-Dec-09 19:00N 09°22' W 079°54'0 0.4
2017-Dec-09 18:31N 09°22' W 079°54'2 3.3
2017-Dec-09 18:00N 09°24' W 079°54'1 1.5
2017-Dec-09 17:30N 09°25' W 079°54'1 2.7
2017-Dec-09 17:00N 09°26' W 079°53'0 0.6
2017-Dec-09 16:30N 09°26' W 079°53'1 2.8
2017-Dec-09 16:00N 09°26' W 079°55'3 5.1
2017-Dec-09 15:30N 09°27' W 079°57'2 4.8
2017-Dec-09 15:00N 09°28' W 079°59'2 5.0
2017-Dec-09 14:30N 09°28' W 080°02'4 5.3
2017-Dec-09 13:42N 09°30' W 080°06'10 5.5
2017-Dec-09 11:49N 09°31' W 080°16'3 5.6
2017-Dec-09 11:14N 09°31' W 080°20'7 5.8
2017-Dec-09 10:02N 09°32' W 080°27'1 6.2
2017-Dec-09 09:52N 09°32' W 080°28'3 6.5
2017-Dec-09 09:21N 09°33' W 080°31'  

Dump ship's entire track history